sensor_id;sensor_type;location;lat;lon;timestamp;pressure;altitude;pressure_sealevel;temperature;humidity
72612;BME280;60655;52.182;4.474;2022-09-09T00:03:56;100746.13;;;17.82;76.93
72612;BME280;60655;52.182;4.474;2022-09-09T00:06:24;100749.34;;;17.79;76.49
72612;BME280;60655;52.182;4.474;2022-09-09T00:11:01;100743.69;;;17.75;76.92
72612;BME280;60655;52.182;4.474;2022-09-09T00:13:26;100742.78;;;17.49;77.99
72612;BME280;60655;52.182;4.474;2022-09-09T00:15:42;100748.41;;;17.43;78.26
72612;BME280;60655;52.182;4.474;2022-09-09T00:17:52;100731.47;;;17.42;77.96
72612;BME280;60655;52.182;4.474;2022-09-09T00:20:05;100734.72;;;17.49;78.22
72612;BME280;60655;52.182;4.474;2022-09-09T00:26:40;100747.16;;;17.71;77.51
72612;BME280;60655;52.182;4.474;2022-09-09T00:28:54;100739.91;;;17.66;77.52
72612;BME280;60655;52.182;4.474;2022-09-09T00:31:00;100742.56;;;17.56;77.51
72612;BME280;60655;52.182;4.474;2022-09-09T00:33:11;100739.06;;;17.55;77.79
72612;BME280;60655;52.182;4.474;2022-09-09T00:35:24;100736.16;;;17.67;77.61
72612;BME280;60655;52.182;4.474;2022-09-09T00:37:26;100745.84;;;17.73;77.58
72612;BME280;60655;52.182;4.474;2022-09-09T00:41:57;100739.94;;;17.76;77.39
72612;BME280;60655;52.182;4.474;2022-09-09T00:46:47;100729.97;;;17.67;77.59
72612;BME280;60655;52.182;4.474;2022-09-09T00:54:23;100729.66;;;17.63;78.18
72612;BME280;60655;52.182;4.474;2022-09-09T00:56:00;100726.19;;;17.68;77.84
72612;BME280;60655;52.182;4.474;2022-09-09T00:58:07;100723.78;;;17.71;77.51
72612;BME280;60655;52.182;4.474;2022-09-09T01:00:22;100724.84;;;17.65;78.01
72612;BME280;60655;52.182;4.474;2022-09-09T01:05:17;100720.78;;;17.58;78.36
72612;BME280;60655;52.182;4.474;2022-09-09T01:07:20;100717.28;;;17.62;77.95
72612;BME280;60655;52.182;4.474;2022-09-09T01:09:26;100720.28;;;17.61;78.30
72612;BME280;60655;52.182;4.474;2022-09-09T01:13:55;100726.41;;;17.51;78.79
72612;BME280;60655;52.182;4.474;2022-09-09T01:16:01;100718.63;;;17.54;78.39
72612;BME280;60655;52.182;4.474;2022-09-09T01:18:12;100721.06;;;17.56;78.21
72612;BME280;60655;52.182;4.474;2022-09-09T01:20:21;100720.75;;;17.47;78.21
72612;BME280;60655;52.182;4.474;2022-09-09T01:22:59;100710.50;;;17.29;78.90
72612;BME280;60655;52.182;4.474;2022-09-09T01:25:18;100714.28;;;17.43;79.00
72612;BME280;60655;52.182;4.474;2022-09-09T01:27:21;100712.41;;;17.39;78.76
72612;BME280;60655;52.182;4.474;2022-09-09T01:29:24;100709.22;;;17.47;78.21
72612;BME280;60655;52.182;4.474;2022-09-09T01:31:36;100697.34;;;17.33;78.64
72612;BME280;60655;52.182;4.474;2022-09-09T01:33:37;100709.97;;;17.37;78.59
72612;BME280;60655;52.182;4.474;2022-09-09T01:37:42;100712.13;;;17.35;78.45
72612;BME280;60655;52.182;4.474;2022-09-09T01:39:44;100701.41;;;17.40;78.92
72612;BME280;60655;52.182;4.474;2022-09-09T01:41:45;100699.28;;;17.47;78.66
72612;BME280;60655;52.182;4.474;2022-09-09T01:43:47;100695.75;;;17.42;78.68
72612;BME280;60655;52.182;4.474;2022-09-09T01:45:51;100690.66;;;17.30;78.84
72612;BME280;60655;52.182;4.474;2022-09-09T01:47:53;100691.44;;;17.36;79.18
72612;BME280;60655;52.182;4.474;2022-09-09T01:49:54;100687.41;;;17.33;79.24
72612;BME280;60655;52.182;4.474;2022-09-09T01:51:56;100687.41;;;17.38;78.95
72612;BME280;60655;52.182;4.474;2022-09-09T01:54:01;100693.31;;;17.30;78.94
72612;BME280;60655;52.182;4.474;2022-09-09T02:00:12;100677.44;;;17.18;79.45
72612;BME280;60655;52.182;4.474;2022-09-09T02:02:19;100683.91;;;17.33;79.19
72612;BME280;60655;52.182;4.474;2022-09-09T02:04:41;100681.75;;;17.25;79.29
72612;BME280;60655;52.182;4.474;2022-09-09T02:06:43;100683.06;;;17.17;79.54
72612;BME280;60655;52.182;4.474;2022-09-09T02:08:50;100688.97;;;17.19;79.62
72612;BME280;60655;52.182;4.474;2022-09-09T02:10:58;100672.84;;;17.14;79.40
72612;BME280;60655;52.182;4.474;2022-09-09T02:13:08;100672.84;;;17.09;79.41
72612;BME280;60655;52.182;4.474;2022-09-09T02:17:40;100679.28;;;17.13;79.72
72612;BME280;60655;52.182;4.474;2022-09-09T02:19:48;100674.16;;;17.06;79.79
72612;BME280;60655;52.182;4.474;2022-09-09T02:21:50;100669.34;;;17.03;79.62
72612;BME280;60655;52.182;4.474;2022-09-09T02:23:52;100684.41;;;17.19;79.24
72612;BME280;60655;52.182;4.474;2022-09-09T02:25:56;100679.84;;;17.15;79.24
72612;BME280;60655;52.182;4.474;2022-09-09T02:27:58;100679.81;;;17.10;79.35
72612;BME280;60655;52.182;4.474;2022-09-09T02:30:01;100670.94;;;17.04;79.52
72612;BME280;60655;52.182;4.474;2022-09-09T02:32:06;100664.75;;;16.99;79.87
72612;BME280;60655;52.182;4.474;2022-09-09T02:34:09;100670.94;;;16.99;79.67
72612;BME280;60655;52.182;4.474;2022-09-09T02:36:13;100663.41;;;16.96;80.01
72612;BME280;60655;52.182;4.474;2022-09-09T02:38:17;100654.03;;;16.99;80.09
72612;BME280;60655;52.182;4.474;2022-09-09T02:40:18;100656.97;;;16.97;79.43
72612;BME280;60655;52.182;4.474;2022-09-09T02:42:19;100644.84;;;16.90;79.81
72612;BME280;60655;52.182;4.474;2022-09-09T02:44:20;100659.34;;;16.88;80.19
72612;BME280;60655;52.182;4.474;2022-09-09T02:48:59;100658.47;;;16.78;80.10
72612;BME280;60655;52.182;4.474;2022-09-09T02:51:27;100659.31;;;16.83;80.61
72612;BME280;60655;52.182;4.474;2022-09-09T02:53:43;100658.47;;;16.78;80.42
72612;BME280;60655;52.182;4.474;2022-09-09T02:58:13;100648.56;;;16.78;79.88
72612;BME280;60655;52.182;4.474;2022-09-09T03:00:23;100656.59;;;16.78;79.60
72612;BME280;60655;52.182;4.474;2022-09-09T03:02:25;100654.75;;;16.84;80.16
72612;BME280;60655;52.182;4.474;2022-09-09T03:04:26;100660.91;;;16.74;80.42
72612;BME280;60655;52.182;4.474;2022-09-09T03:06:27;100664.91;;;16.77;80.05
72612;BME280;60655;52.182;4.474;2022-09-09T03:08:28;100669.75;;;16.80;79.33
72612;BME280;60655;52.182;4.474;2022-09-09T03:10:29;100662.19;;;16.67;80.24
72612;BME280;60655;52.182;4.474;2022-09-09T03:12:31;100659.53;;;16.77;79.91
72612;BME280;60655;52.182;4.474;2022-09-09T03:14:33;100660.16;;;16.89;79.69
72612;BME280;60655;52.182;4.474;2022-09-09T03:16:35;100654.22;;;16.82;79.74
72612;BME280;60655;52.182;4.474;2022-09-09T03:18:35;100653.91;;;16.78;79.63
72612;BME280;60655;52.182;4.474;2022-09-09T03:20:36;100645.09;;;16.83;79.94
72612;BME280;60655;52.182;4.474;2022-09-09T03:22:37;100643.22;;;16.83;79.61
72612;BME280;60655;52.182;4.474;2022-09-09T03:24:38;100644.53;;;16.81;79.44
72612;BME280;60655;52.182;4.474;2022-09-09T03:26:40;100640.19;;;16.65;80.14
72612;BME280;60655;52.182;4.474;2022-09-09T03:28:42;100641.06;;;16.80;79.72
72612;BME280;60655;52.182;4.474;2022-09-09T03:30:44;100638.59;;;16.69;80.03
72612;BME280;60655;52.182;4.474;2022-09-09T03:32:44;100641.59;;;16.82;79.52
72612;BME280;60655;52.182;4.474;2022-09-09T03:34:45;100640.84;;;16.92;79.22
72612;BME280;60655;52.182;4.474;2022-09-09T03:36:50;100627.66;;;16.85;79.24
72612;BME280;60655;52.182;4.474;2022-09-09T03:38:51;100632.16;;;16.75;79.60
72612;BME280;60655;52.182;4.474;2022-09-09T03:40:53;100626.81;;;16.70;79.38
72612;BME280;60655;52.182;4.474;2022-09-09T03:42:58;100630.03;;;16.72;79.63
72612;BME280;60655;52.182;4.474;2022-09-09T03:44:59;100616.28;;;16.63;79.89
72612;BME280;60655;52.182;4.474;2022-09-09T03:47:00;100622.25;;;16.70;79.40
72612;BME280;60655;52.182;4.474;2022-09-09T03:49:01;100635.69;;;16.80;79.50
72612;BME280;60655;52.182;4.474;2022-09-09T03:51:03;100620.13;;;16.77;79.21
72612;BME280;60655;52.182;4.474;2022-09-09T03:53:04;100628.41;;;16.76;79.55
72612;BME280;60655;52.182;4.474;2022-09-09T03:55:07;100628.72;;;16.79;79.46
72612;BME280;60655;52.182;4.474;2022-09-09T03:57:11;100628.16;;;16.77;79.20
72612;BME280;60655;52.182;4.474;2022-09-09T03:59:13;100632.72;;;16.72;79.49
72612;BME280;60655;52.182;4.474;2022-09-09T04:01:15;100638.56;;;16.64;79.80
72612;BME280;60655;52.182;4.474;2022-09-09T04:03:18;100629.69;;;16.63;79.44
72612;BME280;60655;52.182;4.474;2022-09-09T04:05:19;100632.63;;;16.62;79.58
72612;BME280;60655;52.182;4.474;2022-09-09T04:07:20;100632.28;;;16.48;80.01
72612;BME280;60655;52.182;4.474;2022-09-09T04:09:22;100618.97;;;16.63;79.84
72612;BME280;60655;52.182;4.474;2022-09-09T04:11:23;100622.91;;;16.45;79.76
72612;BME280;60655;52.182;4.474;2022-09-09T04:13:25;100625.03;;;16.48;80.03
72612;BME280;60655;52.182;4.474;2022-09-09T04:15:26;100621.03;;;16.51;80.11
72612;BME280;60655;52.182;4.474;2022-09-09T04:17:27;100614.81;;;16.40;80.03
72612;BME280;60655;52.182;4.474;2022-09-09T04:19:28;100619.94;;;16.47;79.79
72612;BME280;60655;52.182;4.474;2022-09-09T04:21:29;100610.81;;;16.48;79.94
72612;BME280;60655;52.182;4.474;2022-09-09T04:23:30;100598.72;;;16.35;80.12
72612;BME280;60655;52.182;4.474;2022-09-09T04:25:31;100592.59;;;16.50;80.11
72612;BME280;60655;52.182;4.474;2022-09-09T04:27:33;100597.91;;;16.35;79.57
72612;BME280;60655;52.182;4.474;2022-09-09T04:29:34;100603.84;;;16.42;80.08
72612;BME280;60655;52.182;4.474;2022-09-09T04:31:35;100604.38;;;16.39;79.74
72612;BME280;60655;52.182;4.474;2022-09-09T04:33:36;100605.09;;;16.29;80.69
72612;BME280;60655;52.182;4.474;2022-09-09T04:35:38;100613.75;;;16.46;80.51
72612;BME280;60655;52.182;4.474;2022-09-09T04:37:39;100607.03;;;16.39;80.28
72612;BME280;60655;52.182;4.474;2022-09-09T04:39:40;100602.78;;;16.43;80.17
72612;BME280;60655;52.182;4.474;2022-09-09T04:41:41;100597.16;;;16.49;80.06
72612;BME280;60655;52.182;4.474;2022-09-09T04:43:42;100597.91;;;16.35;80.35
72612;BME280;60655;52.182;4.474;2022-09-09T04:45:47;100589.34;;;16.38;80.20
72612;BME280;60655;52.182;4.474;2022-09-09T04:47:48;100581.25;;;16.33;79.95
72612;BME280;60655;52.182;4.474;2022-09-09T04:49:49;100591.50;;;16.46;79.97
72612;BME280;60655;52.182;4.474;2022-09-09T04:51:50;100592.56;;;16.40;79.73
72612;BME280;60655;52.182;4.474;2022-09-09T04:53:51;100588.03;;;16.40;79.92
72612;BME280;60655;52.182;4.474;2022-09-09T04:56:03;100582.69;;;16.45;80.04
72612;BME280;60655;52.182;4.474;2022-09-09T04:58:06;100582.41;;;16.47;79.75
72612;BME280;60655;52.182;4.474;2022-09-09T05:00:08;100591.66;;;16.24;80.61
72612;BME280;60655;52.182;4.474;2022-09-09T05:02:09;100588.97;;;16.24;80.81
72612;BME280;60655;52.182;4.474;2022-09-09T05:04:10;100592.19;;;16.21;80.90
72612;BME280;60655;52.182;4.474;2022-09-09T05:06:17;100593.91;;;16.37;80.45
72612;BME280;60655;52.182;4.474;2022-09-09T05:08:18;100585.00;;;16.32;80.59
72612;BME280;60655;52.182;4.474;2022-09-09T05:10:18;100587.69;;;16.32;80.60
72612;BME280;60655;52.182;4.474;2022-09-09T05:12:19;100580.69;;;16.26;80.53
72612;BME280;60655;52.182;4.474;2022-09-09T05:14:20;100588.69;;;16.15;80.34
72612;BME280;60655;52.182;4.474;2022-09-09T05:16:22;100586.53;;;16.17;80.74
72612;BME280;60655;52.182;4.474;2022-09-09T05:18:23;100587.41;;;16.28;80.79
72612;BME280;60655;52.182;4.474;2022-09-09T05:20:24;100585.19;;;16.15;80.62
72612;BME280;60655;52.182;4.474;2022-09-09T05:22:25;100590.81;;;16.13;80.78
72612;BME280;60655;52.182;4.474;2022-09-09T05:24:27;100588.66;;;16.10;80.19
72612;BME280;60655;52.182;4.474;2022-09-09T05:26:28;100591.63;;;16.19;79.69
72612;BME280;60655;52.182;4.474;2022-09-09T05:28:30;100581.91;;;16.03;80.61
72612;BME280;60655;52.182;4.474;2022-09-09T05:30:31;100587.06;;;16.14;80.99
72612;BME280;60655;52.182;4.474;2022-09-09T05:32:32;100590.00;;;16.18;80.72
72612;BME280;60655;52.182;4.474;2022-09-09T05:34:34;100574.47;;;16.20;80.07
72612;BME280;60655;52.182;4.474;2022-09-09T05:36:35;100581.22;;;16.28;80.44
72612;BME280;60655;52.182;4.474;2022-09-09T05:38:36;100576.06;;;16.11;80.38
72612;BME280;60655;52.182;4.474;2022-09-09T05:40:38;100580.28;;;16.02;81.50
72612;BME280;60655;52.182;4.474;2022-09-09T05:42:39;100574.69;;;16.08;80.96
72612;BME280;60655;52.182;4.474;2022-09-09T05:44:40;100569.66;;;16.22;80.74
72612;BME280;60655;52.182;4.474;2022-09-09T05:46:42;100588.25;;;16.34;80.65
72612;BME280;60655;52.182;4.474;2022-09-09T05:48:46;100562.19;;;16.24;80.61
72612;BME280;60655;52.182;4.474;2022-09-09T05:50:52;100585.75;;;16.22;80.49
72612;BME280;60655;52.182;4.474;2022-09-09T05:52:54;100589.31;;;16.33;79.79
72612;BME280;60655;52.182;4.474;2022-09-09T05:54:55;100576.78;;;16.43;80.14
72612;BME280;60655;52.182;4.474;2022-09-09T05:56:57;100579.72;;;16.47;80.01
72612;BME280;60655;52.182;4.474;2022-09-09T05:58:59;100600.03;;;16.33;80.07
72612;BME280;60655;52.182;4.474;2022-09-09T06:01:05;100606.47;;;16.32;80.52
72612;BME280;60655;52.182;4.474;2022-09-09T06:03:10;100601.44;;;16.40;80.37
72612;BME280;60655;52.182;4.474;2022-09-09T06:05:11;100608.41;;;16.46;80.12
72612;BME280;60655;52.182;4.474;2022-09-09T06:07:13;100605.50;;;16.53;79.91
72612;BME280;60655;52.182;4.474;2022-09-09T06:09:15;100607.88;;;16.49;80.02
72612;BME280;60655;52.182;4.474;2022-09-09T06:11:19;100603.88;;;16.52;79.73
72612;BME280;60655;52.182;4.474;2022-09-09T06:13:20;100601.16;;;16.42;80.78
72612;BME280;60655;52.182;4.474;2022-09-09T06:15:21;100603.34;;;16.55;80.34
72612;BME280;60655;52.182;4.474;2022-09-09T06:17:22;100604.63;;;16.37;80.47
72612;BME280;60655;52.182;4.474;2022-09-09T06:19:23;100599.56;;;16.41;80.40
72612;BME280;60655;52.182;4.474;2022-09-09T06:21:31;100596.25;;;16.29;80.66
72612;BME280;60655;52.182;4.474;2022-09-09T06:23:39;100600.66;;;16.50;80.71
72612;BME280;60655;52.182;4.474;2022-09-09T06:25:41;100595.88;;;16.62;80.15
72612;BME280;60655;52.182;4.474;2022-09-09T06:27:42;100601.72;;;16.49;80.09
72612;BME280;60655;52.182;4.474;2022-09-09T06:29:42;100593.69;;;16.54;80.51
72612;BME280;60655;52.182;4.474;2022-09-09T06:31:43;100597.84;;;16.72;80.07
72612;BME280;60655;52.182;4.474;2022-09-09T06:33:45;100595.88;;;16.62;79.47
72612;BME280;60655;52.182;4.474;2022-09-09T06:35:51;100587.28;;;16.55;79.53
72612;BME280;60655;52.182;4.474;2022-09-09T06:37:53;100603.63;;;16.53;79.82
72612;BME280;60655;52.182;4.474;2022-09-09T06:39:54;100593.13;;;16.47;80.46
72612;BME280;60655;52.182;4.474;2022-09-09T06:41:55;100601.84;;;16.64;79.59
72612;BME280;60655;52.182;4.474;2022-09-09T06:43:58;100598.03;;;16.60;80.17
72612;BME280;60655;52.182;4.474;2022-09-09T06:46:06;100596.34;;;16.49;79.63
72612;BME280;60655;52.182;4.474;2022-09-09T06:48:08;100598.81;;;16.55;80.33
72612;BME280;60655;52.182;4.474;2022-09-09T06:50:09;100597.84;;;16.77;79.45
72612;BME280;60655;52.182;4.474;2022-09-09T06:52:11;100593.03;;;16.84;79.12
72612;BME280;60655;52.182;4.474;2022-09-09T06:54:13;100596.00;;;16.82;78.60
72612;BME280;60655;52.182;4.474;2022-09-09T06:56:19;100595.44;;;16.80;78.83
72612;BME280;60655;52.182;4.474;2022-09-09T06:58:21;100590.06;;;16.75;79.31
72612;BME280;60655;52.182;4.474;2022-09-09T07:00:24;100594.06;;;16.68;78.73
72612;BME280;60655;52.182;4.474;2022-09-09T07:02:26;100605.88;;;16.67;79.06
72612;BME280;60655;52.182;4.474;2022-09-09T07:04:27;100601.88;;;16.79;78.53
72612;BME280;60655;52.182;4.474;2022-09-09T07:06:30;100606.88;;;16.61;79.45
72612;BME280;60655;52.182;4.474;2022-09-09T07:08:31;100608.84;;;16.75;79.18
72612;BME280;60655;52.182;4.474;2022-09-09T07:10:32;100599.47;;;16.73;79.15
72612;BME280;60655;52.182;4.474;2022-09-09T07:12:34;100606.75;;;16.87;78.47
72612;BME280;60655;52.182;4.474;2022-09-09T07:14:35;100606.69;;;16.77;78.85
72612;BME280;60655;52.182;4.474;2022-09-09T07:16:38;100596.00;;;16.82;79.30
72612;BME280;60655;52.182;4.474;2022-09-09T07:18:40;100600.31;;;16.88;78.89
72612;BME280;60655;52.182;4.474;2022-09-09T07:20:41;100605.16;;;16.92;78.65
72612;BME280;60655;52.182;4.474;2022-09-09T07:22:42;100604.38;;;17.01;78.33
72612;BME280;60655;52.182;4.474;2022-09-09T07:24:43;100604.66;;;17.10;78.14
72612;BME280;60655;52.182;4.474;2022-09-09T07:26:45;100607.88;;;17.07;78.12
72612;BME280;60655;52.182;4.474;2022-09-09T07:28:47;100588.31;;;17.16;77.91
72612;BME280;60655;52.182;4.474;2022-09-09T07:30:59;100597.19;;;17.27;77.94
72612;BME280;60655;52.182;4.474;2022-09-09T07:33:03;100598.53;;;17.25;77.98
72612;BME280;60655;52.182;4.474;2022-09-09T07:35:04;100596.31;;;17.06;77.80
72612;BME280;60655;52.182;4.474;2022-09-09T07:37:05;100606.03;;;17.17;78.06
72612;BME280;60655;52.182;4.474;2022-09-09T07:39:09;100594.50;;;17.22;77.93
72612;BME280;60655;52.182;4.474;2022-09-09T07:41:12;100607.91;;;17.17;77.78
72612;BME280;60655;52.182;4.474;2022-09-09T07:43:14;100604.72;;;17.25;77.41
72612;BME280;60655;52.182;4.474;2022-09-09T07:45:15;100603.34;;;17.17;77.60
72612;BME280;60655;52.182;4.474;2022-09-09T07:47:16;100601.47;;;17.23;77.44
72612;BME280;60655;52.182;4.474;2022-09-09T07:49:17;100606.81;;;17.03;77.83
72612;BME280;60655;52.182;4.474;2022-09-09T07:51:29;100604.91;;;16.98;77.47
72612;BME280;60655;52.182;4.474;2022-09-09T07:53:30;100605.72;;;17.04;78.13
72612;BME280;60655;52.182;4.474;2022-09-09T07:55:31;100603.59;;;17.11;78.18
72612;BME280;60655;52.182;4.474;2022-09-09T07:57:32;100600.63;;;16.97;78.29
72612;BME280;60655;52.182;4.474;2022-09-09T07:59:33;100608.72;;;17.17;77.74
72612;BME280;60655;52.182;4.474;2022-09-09T08:01:36;100603.31;;;16.97;78.39
72612;BME280;60655;52.182;4.474;2022-09-09T08:03:39;100602.66;;;16.75;78.54
72612;BME280;60655;52.182;4.474;2022-09-09T08:05:40;100605.41;;;16.90;78.37
72612;BME280;60655;52.182;4.474;2022-09-09T08:07:42;100602.75;;;16.95;78.18
72612;BME280;60655;52.182;4.474;2022-09-09T08:09:43;100610.56;;;17.12;78.11
72612;BME280;60655;52.182;4.474;2022-09-09T08:11:44;100610.03;;;17.15;77.90
72612;BME280;60655;52.182;4.474;2022-09-09T08:13:45;100603.59;;;17.11;77.63
72612;BME280;60655;52.182;4.474;2022-09-09T08:15:46;100596.59;;;17.00;77.86
72612;BME280;60655;52.182;4.474;2022-09-09T08:17:47;100609.47;;;16.98;77.81
72612;BME280;60655;52.182;4.474;2022-09-09T08:19:48;100606.25;;;17.06;77.81
72612;BME280;60655;52.182;4.474;2022-09-09T08:21:49;100603.31;;;17.07;77.94
72612;BME280;60655;52.182;4.474;2022-09-09T08:23:52;100613.25;;;17.12;77.32
72612;BME280;60655;52.182;4.474;2022-09-09T08:25:53;100603.31;;;17.12;77.69
72612;BME280;60655;52.182;4.474;2022-09-09T08:27:54;100603.03;;;17.09;77.67
72612;BME280;60655;52.182;4.474;2022-09-09T08:29:56;100596.81;;;16.88;78.18
72612;BME280;60655;52.182;4.474;2022-09-09T08:31:57;100594.72;;;17.05;78.23
72612;BME280;60655;52.182;4.474;2022-09-09T08:33:59;100590.19;;;17.16;77.76
72612;BME280;60655;52.182;4.474;2022-09-09T08:36:00;100592.34;;;17.24;77.29
72612;BME280;60655;52.182;4.474;2022-09-09T08:38:01;100602.31;;;17.29;77.42
72612;BME280;60655;52.182;4.474;2022-09-09T08:40:03;100596.13;;;17.23;77.03
72612;BME280;60655;52.182;4.474;2022-09-09T08:42:27;100602.03;;;17.25;77.31
72612;BME280;60655;52.182;4.474;2022-09-09T08:44:59;100594.75;;;17.20;76.99
72612;BME280;60655;52.182;4.474;2022-09-09T08:51:50;100603.59;;;17.16;77.67
72612;BME280;60655;52.182;4.474;2022-09-09T08:53:52;100605.75;;;17.14;77.86
72612;BME280;60655;52.182;4.474;2022-09-09T08:55:56;100614.38;;;17.26;77.52
72612;BME280;60655;52.182;4.474;2022-09-09T08:58:06;100595.28;;;17.17;78.08
72612;BME280;60655;52.182;4.474;2022-09-09T09:00:10;100613.81;;;17.14;78.08
72612;BME280;60655;52.182;4.474;2022-09-09T09:02:25;100610.03;;;17.15;78.03
72612;BME280;60655;52.182;4.474;2022-09-09T09:11:16;100600.16;;;17.36;77.35
72612;BME280;60655;52.182;4.474;2022-09-09T09:13:30;100612.78;;;17.40;76.88
72612;BME280;60655;52.182;4.474;2022-09-09T09:15:37;100608.47;;;17.34;77.25
72612;BME280;60655;52.182;4.474;2022-09-09T09:17:39;100618.69;;;17.37;77.38
72612;BME280;60655;52.182;4.474;2022-09-09T09:19:41;100612.75;;;17.35;77.69
72612;BME280;60655;52.182;4.474;2022-09-09T09:21:49;100610.06;;;17.35;77.75
72612;BME280;60655;52.182;4.474;2022-09-09T09:24:00;100625.94;;;17.32;78.09
72612;BME280;60655;52.182;4.474;2022-09-09T09:26:01;100624.84;;;17.38;78.16
72612;BME280;60655;52.182;4.474;2022-09-09T09:28:16;100629.38;;;17.17;79.41
72612;BME280;60655;52.182;4.474;2022-09-09T09:30:23;100625.38;;;17.25;78.92
72612;BME280;60655;52.182;4.474;2022-09-09T09:32:26;100622.69;;;17.25;79.10
72612;BME280;60655;52.182;4.474;2022-09-09T09:34:28;100619.19;;;17.24;79.82
72612;BME280;60655;52.182;4.474;2022-09-09T09:36:37;100614.13;;;17.48;79.50
72612;BME280;60655;52.182;4.474;2022-09-09T09:38:39;100619.47;;;17.23;80.73
72612;BME280;60655;52.182;4.474;2022-09-09T09:40:49;100614.91;;;17.33;80.14
72612;BME280;60655;52.182;4.474;2022-09-09T09:42:58;100612.22;;;17.33;80.42
72612;BME280;60655;52.182;4.474;2022-09-09T09:45:41;100605.50;;;17.36;80.57
72612;BME280;60655;52.182;4.474;2022-09-09T09:47:39;100602.56;;;17.37;80.40
72612;BME280;60655;52.182;4.474;2022-09-09T09:49:58;100594.50;;;17.37;81.10
72612;BME280;60655;52.182;4.474;2022-09-09T09:52:01;100597.47;;;17.46;80.70
72612;BME280;60655;52.182;4.474;2022-09-09T09:56:27;100605.81;;;17.54;80.08
72612;BME280;60655;52.182;4.474;2022-09-09T09:58:53;100606.88;;;17.38;80.89
72612;BME280;60655;52.182;4.474;2022-09-09T10:00:54;100602.31;;;17.29;81.04
72612;BME280;60655;52.182;4.474;2022-09-09T10:02:56;100606.34;;;17.46;80.92
72612;BME280;60655;52.182;4.474;2022-09-09T10:05:06;100607.41;;;17.40;81.20
72612;BME280;60655;52.182;4.474;2022-09-09T10:07:12;100611.44;;;17.38;81.05
72612;BME280;60655;52.182;4.474;2022-09-09T10:09:28;100605.81;;;17.44;80.84
72612;BME280;60655;52.182;4.474;2022-09-09T10:11:46;100602.06;;;17.55;80.74
72612;BME280;60655;52.182;4.474;2022-09-09T10:14:28;100602.34;;;17.59;80.81
72612;BME280;60655;52.182;4.474;2022-09-09T10:23:27;100600.22;;;17.81;81.56
72612;BME280;60655;52.182;4.474;2022-09-09T10:25:43;100606.38;;;17.57;82.32
72612;BME280;60655;52.182;4.474;2022-09-09T10:30:17;100612.50;;;17.32;83.62
72612;BME280;60655;52.182;4.474;2022-09-09T10:32:37;100603.41;;;17.48;82.39
72612;BME280;60655;52.182;4.474;2022-09-09T10:34:49;100608.75;;;17.28;83.61
72612;BME280;60655;52.182;4.474;2022-09-09T10:36:53;100623.47;;;17.20;84.06
72612;BME280;60655;52.182;4.474;2022-09-09T10:39:05;100626.16;;;17.20;83.47
72612;BME280;60655;52.182;4.474;2022-09-09T10:41:19;100611.09;;;17.04;84.67
72612;BME280;60655;52.182;4.474;2022-09-09T10:48:00;100612.25;;;17.43;82.82
72612;BME280;60655;52.182;4.474;2022-09-09T10:50:22;100601.50;;;17.43;83.32
72612;BME280;60655;52.182;4.474;2022-09-09T10:52:36;100592.34;;;17.34;83.70
72612;BME280;60655;52.182;4.474;2022-09-09T10:54:55;100588.88;;;17.29;83.80
72612;BME280;60655;52.182;4.474;2022-09-09T10:57:03;100579.47;;;17.36;83.85
72612;BME280;60655;52.182;4.474;2022-09-09T10:59:18;100598.56;;;17.30;84.25
72612;BME280;60655;52.182;4.474;2022-09-09T11:01:30;100586.75;;;17.31;84.01
72612;BME280;60655;52.182;4.474;2022-09-09T11:03:34;100592.91;;;17.26;84.00
72612;BME280;60655;52.182;4.474;2022-09-09T11:05:41;100591.03;;;17.42;83.97
72612;BME280;60655;52.182;4.474;2022-09-09T11:07:48;100590.50;;;17.50;84.13
72612;BME280;60655;52.182;4.474;2022-09-09T11:09:56;100591.88;;;17.58;83.93
72612;BME280;60655;52.182;4.474;2022-09-09T11:12:00;100591.34;;;17.61;84.37
72612;BME280;60655;52.182;4.474;2022-09-09T11:18:32;100591.59;;;17.54;83.55
72612;BME280;60655;52.182;4.474;2022-09-09T11:20:36;100580.59;;;17.61;83.47
72612;BME280;60655;52.182;4.474;2022-09-09T11:22:44;100599.13;;;17.77;83.27
72612;BME280;60655;52.182;4.474;2022-09-09T11:24:51;100599.13;;;17.82;82.56
72612;BME280;60655;52.182;4.474;2022-09-09T11:26:57;100604.25;;;17.84;83.45
72612;BME280;60655;52.182;4.474;2022-09-09T11:29:27;100591.31;;;17.55;82.85
72612;BME280;60655;52.182;4.474;2022-09-09T11:36:03;100604.50;;;17.87;83.73
72612;BME280;60655;52.182;4.474;2022-09-09T11:40:20;100603.16;;;17.95;82.17
72612;BME280;60655;52.182;4.474;2022-09-09T11:42:24;100594.00;;;17.91;81.79
72612;BME280;60655;52.182;4.474;2022-09-09T11:44:30;100591.88;;;17.83;81.87
72612;BME280;60655;52.182;4.474;2022-09-09T11:46:34;100587.59;;;17.82;81.26
72612;BME280;60655;52.182;4.474;2022-09-09T11:50:44;100595.06;;;18.10;80.63
72612;BME280;60655;52.182;4.474;2022-09-09T11:52:46;100590.78;;;18.04;81.44
72612;BME280;60655;52.182;4.474;2022-09-09T11:54:49;100602.06;;;18.06;81.14
72612;BME280;60655;52.182;4.474;2022-09-09T11:56:50;100608.28;;;17.86;81.76
72612;BME280;60655;52.182;4.474;2022-09-09T12:01:13;100609.88;;;17.98;82.00
72612;BME280;60655;52.182;4.474;2022-09-09T12:05:41;100604.25;;;17.84;83.05
72612;BME280;60655;52.182;4.474;2022-09-09T12:07:51;100599.41;;;17.66;83.66
72612;BME280;60655;52.182;4.474;2022-09-09T12:12:22;100598.06;;;17.68;83.79
72612;BME280;60655;52.182;4.474;2022-09-09T12:14:43;100608.00;;;17.78;83.51
72612;BME280;60655;52.182;4.474;2022-09-09T12:16:44;100610.69;;;17.88;83.01
72612;BME280;60655;52.182;4.474;2022-09-09T12:18:45;100602.91;;;17.86;83.63
72612;BME280;60655;52.182;4.474;2022-09-09T12:20:57;100598.59;;;17.85;83.23